sensor_id;sensor_type;location;lat;lon;timestamp;temperature;humidity
30304;DHT22;17112;48.636;10.152;2023-04-15T00:01:24;8.30;60.50
30304;DHT22;17112;48.636;10.152;2023-04-15T00:03:51;8.20;60.50
30304;DHT22;17112;48.636;10.152;2023-04-15T00:06:18;8.20;60.50
30304;DHT22;17112;48.636;10.152;2023-04-15T00:08:44;8.20;60.50
30304;DHT22;17112;48.636;10.152;2023-04-15T00:11:10;8.20;60.60
30304;DHT22;17112;48.636;10.152;2023-04-15T00:13:37;8.20;60.50
30304;DHT22;17112;48.636;10.152;2023-04-15T00:16:04;8.20;60.60
30304;DHT22;17112;48.636;10.152;2023-04-15T00:18:31;8.20;60.60
30304;DHT22;17112;48.636;10.152;2023-04-15T00:20:57;8.20;60.70
30304;DHT22;17112;48.636;10.152;2023-04-15T00:23:23;8.20;60.70
30304;DHT22;17112;48.636;10.152;2023-04-15T00:25:48;8.20;60.80
30304;DHT22;17112;48.636;10.152;2023-04-15T00:28:15;8.10;60.80
30304;DHT22;17112;48.636;10.152;2023-04-15T00:30:41;8.10;60.80
30304;DHT22;17112;48.636;10.152;2023-04-15T00:33:07;8.10;60.90
30304;DHT22;17112;48.636;10.152;2023-04-15T00:35:33;8.10;60.90
30304;DHT22;17112;48.636;10.152;2023-04-15T00:37:59;8.10;60.90
30304;DHT22;17112;48.636;10.152;2023-04-15T00:40:25;8.10;60.90
30304;DHT22;17112;48.636;10.152;2023-04-15T00:42:51;8.00;60.60
30304;DHT22;17112;48.636;10.152;2023-04-15T00:45:17;8.00;60.70
30304;DHT22;17112;48.636;10.152;2023-04-15T00:47:43;8.00;60.90
30304;DHT22;17112;48.636;10.152;2023-04-15T00:50:10;7.90;60.80
30304;DHT22;17112;48.636;10.152;2023-04-15T00:52:37;7.90;61.00
30304;DHT22;17112;48.636;10.152;2023-04-15T00:55:04;7.90;60.90
30304;DHT22;17112;48.636;10.152;2023-04-15T00:57:30;7.80;61.00
30304;DHT22;17112;48.636;10.152;2023-04-15T00:59:56;7.80;61.00
30304;DHT22;17112;48.636;10.152;2023-04-15T01:02:22;7.80;61.10
30304;DHT22;17112;48.636;10.152;2023-04-15T01:04:48;7.80;61.20
30304;DHT22;17112;48.636;10.152;2023-04-15T01:07:14;7.70;61.30
30304;DHT22;17112;48.636;10.152;2023-04-15T01:09:40;7.70;61.40
30304;DHT22;17112;48.636;10.152;2023-04-15T01:12:07;7.70;61.50
30304;DHT22;17112;48.636;10.152;2023-04-15T01:14:35;7.70;61.50
30304;DHT22;17112;48.636;10.152;2023-04-15T01:17:00;7.60;61.50
30304;DHT22;17112;48.636;10.152;2023-04-15T01:19:27;7.60;61.50
30304;DHT22;17112;48.636;10.152;2023-04-15T01:21:53;7.60;61.50
30304;DHT22;17112;48.636;10.152;2023-04-15T01:24:18;7.60;61.60
30304;DHT22;17112;48.636;10.152;2023-04-15T01:26:44;7.60;61.60
30304;DHT22;17112;48.636;10.152;2023-04-15T01:29:11;7.50;61.70
30304;DHT22;17112;48.636;10.152;2023-04-15T01:31:36;7.50;61.60
30304;DHT22;17112;48.636;10.152;2023-04-15T01:34:03;7.50;61.70
30304;DHT22;17112;48.636;10.152;2023-04-15T01:36:29;7.40;61.70
30304;DHT22;17112;48.636;10.152;2023-04-15T01:38:55;7.40;61.80
30304;DHT22;17112;48.636;10.152;2023-04-15T01:41:25;7.40;61.80
30304;DHT22;17112;48.636;10.152;2023-04-15T01:43:51;7.40;62.20
30304;DHT22;17112;48.636;10.152;2023-04-15T01:46:17;7.30;62.00
30304;DHT22;17112;48.636;10.152;2023-04-15T01:48:43;7.30;62.10
30304;DHT22;17112;48.636;10.152;2023-04-15T01:51:09;7.30;62.10
30304;DHT22;17112;48.636;10.152;2023-04-15T01:53:34;7.30;62.80
30304;DHT22;17112;48.636;10.152;2023-04-15T01:56:00;7.30;62.10
30304;DHT22;17112;48.636;10.152;2023-04-15T01:58:25;7.30;62.20
30304;DHT22;17112;48.636;10.152;2023-04-15T02:00:51;7.30;62.20
30304;DHT22;17112;48.636;10.152;2023-04-15T02:03:17;7.30;62.30
30304;DHT22;17112;48.636;10.152;2023-04-15T02:05:43;7.30;62.40
30304;DHT22;17112;48.636;10.152;2023-04-15T02:08:09;7.30;62.50
30304;DHT22;17112;48.636;10.152;2023-04-15T02:10:34;7.30;62.50
30304;DHT22;17112;48.636;10.152;2023-04-15T02:13:00;7.30;62.50
30304;DHT22;17112;48.636;10.152;2023-04-15T02:15:26;7.30;62.50
30304;DHT22;17112;48.636;10.152;2023-04-15T02:17:52;7.30;62.60
30304;DHT22;17112;48.636;10.152;2023-04-15T02:20:20;7.30;62.70
30304;DHT22;17112;48.636;10.152;2023-04-15T02:22:46;7.30;62.80
30304;DHT22;17112;48.636;10.152;2023-04-15T02:25:13;7.20;62.70
30304;DHT22;17112;48.636;10.152;2023-04-15T02:27:38;7.20;62.70
30304;DHT22;17112;48.636;10.152;2023-04-15T02:30:05;7.20;62.80
30304;DHT22;17112;48.636;10.152;2023-04-15T02:32:32;7.20;62.90
30304;DHT22;17112;48.636;10.152;2023-04-15T02:35:04;7.20;62.80
30304;DHT22;17112;48.636;10.152;2023-04-15T02:37:30;7.20;63.10
30304;DHT22;17112;48.636;10.152;2023-04-15T02:39:56;7.20;63.00
30304;DHT22;17112;48.636;10.152;2023-04-15T02:42:22;7.20;63.10
30304;DHT22;17112;48.636;10.152;2023-04-15T02:44:48;7.20;63.00
30304;DHT22;17112;48.636;10.152;2023-04-15T02:47:13;7.20;63.00
30304;DHT22;17112;48.636;10.152;2023-04-15T02:49:40;7.20;63.20
30304;DHT22;17112;48.636;10.152;2023-04-15T02:52:06;7.20;63.20
30304;DHT22;17112;48.636;10.152;2023-04-15T02:54:32;7.20;63.30
30304;DHT22;17112;48.636;10.152;2023-04-15T02:56:58;7.20;63.30
30304;DHT22;17112;48.636;10.152;2023-04-15T02:59:24;7.20;63.20
30304;DHT22;17112;48.636;10.152;2023-04-15T03:01:50;7.20;63.20
30304;DHT22;17112;48.636;10.152;2023-04-15T03:04:15;7.20;63.80
30304;DHT22;17112;48.636;10.152;2023-04-15T03:06:41;7.20;63.20
30304;DHT22;17112;48.636;10.152;2023-04-15T03:09:07;7.20;63.20
30304;DHT22;17112;48.636;10.152;2023-04-15T03:11:33;7.20;63.20
30304;DHT22;17112;48.636;10.152;2023-04-15T03:13:59;7.20;63.30
30304;DHT22;17112;48.636;10.152;2023-04-15T03:16:25;7.20;63.40
30304;DHT22;17112;48.636;10.152;2023-04-15T03:18:51;7.20;63.30
30304;DHT22;17112;48.636;10.152;2023-04-15T03:21:17;7.20;63.40
30304;DHT22;17112;48.636;10.152;2023-04-15T03:23:44;7.20;63.40
30304;DHT22;17112;48.636;10.152;2023-04-15T03:26:31;7.30;63.40
30304;DHT22;17112;48.636;10.152;2023-04-15T03:28:57;7.30;64.00
30304;DHT22;17112;48.636;10.152;2023-04-15T03:31:23;7.20;63.40
30304;DHT22;17112;48.636;10.152;2023-04-15T03:33:49;7.20;63.40
30304;DHT22;17112;48.636;10.152;2023-04-15T03:36:15;7.30;63.50
30304;DHT22;17112;48.636;10.152;2023-04-15T03:38:41;7.30;63.40
30304;DHT22;17112;48.636;10.152;2023-04-15T03:41:07;7.30;63.50
30304;DHT22;17112;48.636;10.152;2023-04-15T03:43:34;7.30;63.50
30304;DHT22;17112;48.636;10.152;2023-04-15T03:46:00;7.30;63.60
30304;DHT22;17112;48.636;10.152;2023-04-15T03:48:26;7.20;63.50
30304;DHT22;17112;48.636;10.152;2023-04-15T03:50:51;7.20;63.40
30304;DHT22;17112;48.636;10.152;2023-04-15T03:53:17;7.20;63.40
30304;DHT22;17112;48.636;10.152;2023-04-15T03:55:43;7.20;63.40
30304;DHT22;17112;48.636;10.152;2023-04-15T03:58:09;7.20;63.50
30304;DHT22;17112;48.636;10.152;2023-04-15T04:00:37;7.20;63.50
30304;DHT22;17112;48.636;10.152;2023-04-15T04:03:03;7.20;63.60
30304;DHT22;17112;48.636;10.152;2023-04-15T04:05:29;7.20;63.60
30304;DHT22;17112;48.636;10.152;2023-04-15T04:07:55;7.20;63.70
30304;DHT22;17112;48.636;10.152;2023-04-15T04:10:21;7.20;63.70
30304;DHT22;17112;48.636;10.152;2023-04-15T04:12:46;7.20;63.80
30304;DHT22;17112;48.636;10.152;2023-04-15T04:15:12;7.20;63.90
30304;DHT22;17112;48.636;10.152;2023-04-15T04:17:38;7.20;63.90
30304;DHT22;17112;48.636;10.152;2023-04-15T04:20:04;7.10;63.80
30304;DHT22;17112;48.636;10.152;2023-04-15T04:22:30;7.20;63.90
30304;DHT22;17112;48.636;10.152;2023-04-15T04:24:56;7.10;63.90
30304;DHT22;17112;48.636;10.152;2023-04-15T04:27:24;7.10;63.90
30304;DHT22;17112;48.636;10.152;2023-04-15T04:29:49;7.10;64.30
30304;DHT22;17112;48.636;10.152;2023-04-15T04:32:15;7.10;63.90
30304;DHT22;17112;48.636;10.152;2023-04-15T04:34:41;7.10;63.90
30304;DHT22;17112;48.636;10.152;2023-04-15T04:37:07;7.10;64.00
30304;DHT22;17112;48.636;10.152;2023-04-15T04:39:32;7.10;63.90
30304;DHT22;17112;48.636;10.152;2023-04-15T04:41:58;7.10;63.90
30304;DHT22;17112;48.636;10.152;2023-04-15T04:44:23;7.10;63.90
30304;DHT22;17112;48.636;10.152;2023-04-15T04:46:49;7.10;63.90
30304;DHT22;17112;48.636;10.152;2023-04-15T04:49:15;7.10;64.00
30304;DHT22;17112;48.636;10.152;2023-04-15T04:51:40;7.10;64.00
30304;DHT22;17112;48.636;10.152;2023-04-15T04:54:06;7.10;64.10
30304;DHT22;17112;48.636;10.152;2023-04-15T04:56:32;7.20;64.20
30304;DHT22;17112;48.636;10.152;2023-04-15T04:58:59;7.20;64.20
30304;DHT22;17112;48.636;10.152;2023-04-15T05:01:24;7.20;64.20
30304;DHT22;17112;48.636;10.152;2023-04-15T05:03:52;7.20;64.10
30304;DHT22;17112;48.636;10.152;2023-04-15T05:06:17;7.20;64.00
30304;DHT22;17112;48.636;10.152;2023-04-15T05:08:43;7.20;64.00
30304;DHT22;17112;48.636;10.152;2023-04-15T05:11:08;7.30;64.10
30304;DHT22;17112;48.636;10.152;2023-04-15T05:13:34;7.30;64.10
30304;DHT22;17112;48.636;10.152;2023-04-15T05:16:06;7.30;64.00
30304;DHT22;17112;48.636;10.152;2023-04-15T05:18:32;7.30;64.10
30304;DHT22;17112;48.636;10.152;2023-04-15T05:20:58;7.40;64.30
30304;DHT22;17112;48.636;10.152;2023-04-15T05:23:24;7.40;64.50
30304;DHT22;17112;48.636;10.152;2023-04-15T05:25:50;7.40;64.50
30304;DHT22;17112;48.636;10.152;2023-04-15T05:28:15;7.50;64.70
30304;DHT22;17112;48.636;10.152;2023-04-15T05:30:41;7.50;64.70
30304;DHT22;17112;48.636;10.152;2023-04-15T05:33:07;7.60;64.70
30304;DHT22;17112;48.636;10.152;2023-04-15T05:35:33;7.70;64.70
30304;DHT22;17112;48.636;10.152;2023-04-15T05:37:59;7.70;64.70
30304;DHT22;17112;48.636;10.152;2023-04-15T05:40:25;7.80;64.80
30304;DHT22;17112;48.636;10.152;2023-04-15T05:42:51;7.80;64.50
30304;DHT22;17112;48.636;10.152;2023-04-15T05:45:16;7.90;64.50
30304;DHT22;17112;48.636;10.152;2023-04-15T05:47:42;7.90;64.40
30304;DHT22;17112;48.636;10.152;2023-04-15T05:50:08;8.00;64.40
30304;DHT22;17112;48.636;10.152;2023-04-15T05:52:34;8.10;64.30
30304;DHT22;17112;48.636;10.152;2023-04-15T05:54:59;8.10;64.20
30304;DHT22;17112;48.636;10.152;2023-04-15T05:57:25;8.20;64.10
30304;DHT22;17112;48.636;10.152;2023-04-15T05:59:51;8.30;64.10
30304;DHT22;17112;48.636;10.152;2023-04-15T06:02:17;8.30;64.00
30304;DHT22;17112;48.636;10.152;2023-04-15T06:04:43;8.40;64.00
30304;DHT22;17112;48.636;10.152;2023-04-15T06:07:08;8.40;64.00
30304;DHT22;17112;48.636;10.152;2023-04-15T06:09:34;8.50;64.00
30304;DHT22;17112;48.636;10.152;2023-04-15T06:12:00;8.50;64.00
30304;DHT22;17112;48.636;10.152;2023-04-15T06:14:26;8.60;64.20
30304;DHT22;17112;48.636;10.152;2023-04-15T06:16:52;8.70;64.20
30304;DHT22;17112;48.636;10.152;2023-04-15T06:19:18;8.80;64.10
30304;DHT22;17112;48.636;10.152;2023-04-15T06:21:44;8.90;64.00
30304;DHT22;17112;48.636;10.152;2023-04-15T06:24:10;8.90;63.90
30304;DHT22;17112;48.636;10.152;2023-04-15T06:26:36;9.00;63.90
30304;DHT22;17112;48.636;10.152;2023-04-15T06:29:02;9.10;63.70
30304;DHT22;17112;48.636;10.152;2023-04-15T06:31:28;9.10;63.60
30304;DHT22;17112;48.636;10.152;2023-04-15T06:33:53;9.20;63.70
30304;DHT22;17112;48.636;10.152;2023-04-15T06:36:19;9.30;63.60
30304;DHT22;17112;48.636;10.152;2023-04-15T06:38:45;9.40;63.20
30304;DHT22;17112;48.636;10.152;2023-04-15T06:41:12;9.40;62.90
30304;DHT22;17112;48.636;10.152;2023-04-15T06:43:38;9.50;62.70
30304;DHT22;17112;48.636;10.152;2023-04-15T06:46:04;9.60;62.80
30304;DHT22;17112;48.636;10.152;2023-04-15T06:48:30;9.60;63.00
30304;DHT22;17112;48.636;10.152;2023-04-15T06:50:55;9.70;63.10
30304;DHT22;17112;48.636;10.152;2023-04-15T06:53:24;9.80;63.00
30304;DHT22;17112;48.636;10.152;2023-04-15T06:55:52;9.90;62.90
30304;DHT22;17112;48.636;10.152;2023-04-15T06:58:17;10.00;62.80
30304;DHT22;17112;48.636;10.152;2023-04-15T07:00:43;10.10;62.60
30304;DHT22;17112;48.636;10.152;2023-04-15T07:03:10;10.20;62.40
30304;DHT22;17112;48.636;10.152;2023-04-15T07:05:37;10.30;62.40
30304;DHT22;17112;48.636;10.152;2023-04-15T07:08:03;10.40;62.30
30304;DHT22;17112;48.636;10.152;2023-04-15T07:10:29;10.50;62.20
30304;DHT22;17112;48.636;10.152;2023-04-15T07:12:55;10.60;62.10
30304;DHT22;17112;48.636;10.152;2023-04-15T07:15:21;10.70;61.90
30304;DHT22;17112;48.636;10.152;2023-04-15T07:17:48;10.80;61.60
30304;DHT22;17112;48.636;10.152;2023-04-15T07:20:14;10.90;61.30
30304;DHT22;17112;48.636;10.152;2023-04-15T07:22:39;10.90;61.00
30304;DHT22;17112;48.636;10.152;2023-04-15T07:25:06;11.00;61.00
30304;DHT22;17112;48.636;10.152;2023-04-15T07:27:32;11.10;61.20
30304;DHT22;17112;48.636;10.152;2023-04-15T07:29:57;11.30;61.50
30304;DHT22;17112;48.636;10.152;2023-04-15T07:32:23;11.40;61.60
30304;DHT22;17112;48.636;10.152;2023-04-15T07:34:49;11.60;61.70
30304;DHT22;17112;48.636;10.152;2023-04-15T07:37:14;11.80;61.50
30304;DHT22;17112;48.636;10.152;2023-04-15T07:39:40;11.90;61.20
30304;DHT22;17112;48.636;10.152;2023-04-15T07:42:07;12.10;60.70
30304;DHT22;17112;48.636;10.152;2023-04-15T07:44:33;12.30;60.10
30304;DHT22;17112;48.636;10.152;2023-04-15T07:46:58;12.40;59.40
30304;DHT22;17112;48.636;10.152;2023-04-15T07:49:24;12.60;59.00
30304;DHT22;17112;48.636;10.152;2023-04-15T07:51:50;12.70;58.20
30304;DHT22;17112;48.636;10.152;2023-04-15T07:54:16;12.80;57.40
30304;DHT22;17112;48.636;10.152;2023-04-15T07:56:41;13.00;56.80
30304;DHT22;17112;48.636;10.152;2023-04-15T07:59:07;13.00;56.30
30304;DHT22;17112;48.636;10.152;2023-04-15T08:01:34;13.10;56.40
30304;DHT22;17112;48.636;10.152;2023-04-15T08:04:00;13.10;56.10
30304;DHT22;17112;48.636;10.152;2023-04-15T08:06:25;13.20;55.90
30304;DHT22;17112;48.636;10.152;2023-04-15T08:08:52;13.30;55.20
30304;DHT22;17112;48.636;10.152;2023-04-15T08:11:19;13.30;55.10
30304;DHT22;17112;48.636;10.152;2023-04-15T08:13:46;13.30;54.40
30304;DHT22;17112;48.636;10.152;2023-04-15T08:16:19;13.40;54.90
30304;DHT22;17112;48.636;10.152;2023-04-15T08:18:46;13.40;54.80
30304;DHT22;17112;48.636;10.152;2023-04-15T08:21:12;13.50;55.20
30304;DHT22;17112;48.636;10.152;2023-04-15T08:23:38;13.60;55.10
30304;DHT22;17112;48.636;10.152;2023-04-15T08:26:04;13.70;55.10
30304;DHT22;17112;48.636;10.152;2023-04-15T08:28:30;13.80;55.00
30304;DHT22;17112;48.636;10.152;2023-04-15T08:30:56;13.90;54.70
30304;DHT22;17112;48.636;10.152;2023-04-15T08:33:22;13.90;53.80
30304;DHT22;17112;48.636;10.152;2023-04-15T08:35:48;14.00;53.90
30304;DHT22;17112;48.636;10.152;2023-04-15T08:38:14;14.10;54.10
30304;DHT22;17112;48.636;10.152;2023-04-15T08:40:45;14.20;53.40
30304;DHT22;17112;48.636;10.152;2023-04-15T08:43:40;14.30;52.80
30304;DHT22;17112;48.636;10.152;2023-04-15T08:46:08;14.40;51.50
30304;DHT22;17112;48.636;10.152;2023-04-15T08:48:37;14.50;52.10
30304;DHT22;17112;48.636;10.152;2023-04-15T08:51:03;14.50;51.50
30304;DHT22;17112;48.636;10.152;2023-04-15T08:53:29;14.50;50.90
30304;DHT22;17112;48.636;10.152;2023-04-15T08:55:56;14.50;51.00
30304;DHT22;17112;48.636;10.152;2023-04-15T08:58:23;14.50;51.50
30304;DHT22;17112;48.636;10.152;2023-04-15T09:00:49;14.50;51.60
30304;DHT22;17112;48.636;10.152;2023-04-15T09:03:15;14.50;51.50
30304;DHT22;17112;48.636;10.152;2023-04-15T09:05:42;14.50;50.90
30304;DHT22;17112;48.636;10.152;2023-04-15T09:08:07;14.50;51.20
30304;DHT22;17112;48.636;10.152;2023-04-15T09:10:33;14.60;51.10
30304;DHT22;17112;48.636;10.152;2023-04-15T09:13:00;14.60;50.80
30304;DHT22;17112;48.636;10.152;2023-04-15T09:15:26;14.70;50.80
30304;DHT22;17112;48.636;10.152;2023-04-15T09:17:54;14.70;50.80
30304;DHT22;17112;48.636;10.152;2023-04-15T09:20:21;14.70;51.10
30304;DHT22;17112;48.636;10.152;2023-04-15T09:22:48;14.80;50.90
30304;DHT22;17112;48.636;10.152;2023-04-15T09:27:50;14.90;50.10
30304;DHT22;17112;48.636;10.152;2023-04-15T09:30:16;15.00;49.20
30304;DHT22;17112;48.636;10.152;2023-04-15T09:32:57;15.00;49.60
30304;DHT22;17112;48.636;10.152;2023-04-15T09:35:24;15.00;48.20
30304;DHT22;17112;48.636;10.152;2023-04-15T09:37:51;15.00;49.50
30304;DHT22;17112;48.636;10.152;2023-04-15T09:40:40;15.10;49.90
30304;DHT22;17112;48.636;10.152;2023-04-15T09:43:08;15.10;49.00
30304;DHT22;17112;48.636;10.152;2023-04-15T09:45:38;15.10;49.90
30304;DHT22;17112;48.636;10.152;2023-04-15T09:48:22;15.20;49.40
30304;DHT22;17112;48.636;10.152;2023-04-15T09:50:49;15.20;48.50
30304;DHT22;17112;48.636;10.152;2023-04-15T09:53:19;15.20;49.00
30304;DHT22;17112;48.636;10.152;2023-04-15T09:55:49;15.20;49.00
30304;DHT22;17112;48.636;10.152;2023-04-15T09:58:23;15.20;48.90
30304;DHT22;17112;48.636;10.152;2023-04-15T10:00:50;15.20;48.50
30304;DHT22;17112;48.636;10.152;2023-04-15T10:03:36;15.20;48.60
30304;DHT22;17112;48.636;10.152;2023-04-15T10:06:02;15.20;49.30
30304;DHT22;17112;48.636;10.152;2023-04-15T10:08:31;15.20;49.40
30304;DHT22;17112;48.636;10.152;2023-04-15T10:10:58;15.20;49.00
30304;DHT22;17112;48.636;10.152;2023-04-15T10:13:26;15.30;49.10
30304;DHT22;17112;48.636;10.152;2023-04-15T10:16:06;15.30;48.70
30304;DHT22;17112;48.636;10.152;2023-04-15T10:18:37;15.30;47.60
30304;DHT22;17112;48.636;10.152;2023-04-15T10:21:03;15.30;48.40
30304;DHT22;17112;48.636;10.152;2023-04-15T10:23:31;15.30;48.20
30304;DHT22;17112;48.636;10.152;2023-04-15T10:25:58;15.20;48.10
30304;DHT22;17112;48.636;10.152;2023-04-15T10:28:25;15.20;48.40
30304;DHT22;17112;48.636;10.152;2023-04-15T10:30:51;15.10;48.30
30304;DHT22;17112;48.636;10.152;2023-04-15T10:33:21;15.10;48.40
30304;DHT22;17112;48.636;10.152;2023-04-15T10:35:48;15.00;48.60
30304;DHT22;17112;48.636;10.152;2023-04-15T10:38:35;15.10;48.70
30304;DHT22;17112;48.636;10.152;2023-04-15T10:43:52;15.20;47.30
30304;DHT22;17112;48.636;10.152;2023-04-15T10:49:07;15.20;48.30
30304;DHT22;17112;48.636;10.152;2023-04-15T10:51:37;15.20;47.60
30304;DHT22;17112;48.636;10.152;2023-04-15T10:56:51;15.20;47.90
30304;DHT22;17112;48.636;10.152;2023-04-15T11:02:40;15.20;47.90
30304;DHT22;17112;48.636;10.152;2023-04-15T11:05:06;15.20;47.10
30304;DHT22;17112;48.636;10.152;2023-04-15T11:12:39;15.10;47.30
30304;DHT22;17112;48.636;10.152;2023-04-15T11:18:13;15.00;47.40
30304;DHT22;17112;48.636;10.152;2023-04-15T11:20:41;15.00;46.80
30304;DHT22;17112;48.636;10.152;2023-04-15T11:23:09;14.90;46.70
30304;DHT22;17112;48.636;10.152;2023-04-15T11:25:35;14.90;46.70
30304;DHT22;17112;48.636;10.152;2023-04-15T11:28:04;14.80;46.80
30304;DHT22;17112;48.636;10.152;2023-04-15T11:30:32;14.80;47.60
30304;DHT22;17112;48.636;10.152;2023-04-15T11:33:03;14.70;47.70
30304;DHT22;17112;48.636;10.152;2023-04-15T11:35:29;14.70;48.00
30304;DHT22;17112;48.636;10.152;2023-04-15T11:37:55;14.80;48.00
30304;DHT22;17112;48.636;10.152;2023-04-15T11:40:25;14.80;48.00
30304;DHT22;17112;48.636;10.152;2023-04-15T11:45:29;14.90;46.60
30304;DHT22;17112;48.636;10.152;2023-04-15T11:48:04;14.90;45.30
30304;DHT22;17112;48.636;10.152;2023-04-15T11:50:30;14.80;45.30
30304;DHT22;17112;48.636;10.152;2023-04-15T11:52:58;14.80;46.30
30304;DHT22;17112;48.636;10.152;2023-04-15T11:55:24;14.80;46.40
30304;DHT22;17112;48.636;10.152;2023-04-15T11:58:14;14.80;45.50
30304;DHT22;17112;48.636;10.152;2023-04-15T12:00:51;14.80;45.10
30304;DHT22;17112;48.636;10.152;2023-04-15T12:16:22;15.10;45.20
30304;DHT22;17112;48.636;10.152;2023-04-15T12:18:55;15.10;43.90
30304;DHT22;17112;48.636;10.152;2023-04-15T12:21:26;15.10;43.60
30304;DHT22;17112;48.636;10.152;2023-04-15T12:23:53;15.10;44.00
30304;DHT22;17112;48.636;10.152;2023-04-15T12:26:48;15.20;44.10
30304;DHT22;17112;48.636;10.152;2023-04-15T12:29:13;15.20;42.90
30304;DHT22;17112;48.636;10.152;2023-04-15T12:31:52;15.30;43.60
30304;DHT22;17112;48.636;10.152;2023-04-15T12:34:40;15.40;42.40
30304;DHT22;17112;48.636;10.152;2023-04-15T12:37:08;15.40;42.20
30304;DHT22;17112;48.636;10.152;2023-04-15T12:39:38;15.50;42.20
30304;DHT22;17112;48.636;10.152;2023-04-15T12:42:05;15.40;42.00
30304;DHT22;17112;48.636;10.152;2023-04-15T12:44:32;15.40;42.50
30304;DHT22;17112;48.636;10.152;2023-04-15T12:46:57;15.40;42.20
30304;DHT22;17112;48.636;10.152;2023-04-15T12:49:25;15.40;42.50
30304;DHT22;17112;48.636;10.152;2023-04-15T12:52:00;15.40;42.30
30304;DHT22;17112;48.636;10.152;2023-04-15T12:54:27;15.40;41.90
30304;DHT22;17112;48.636;10.152;2023-04-15T12:56:53;15.30;41.90
30304;DHT22;17112;48.636;10.152;2023-04-15T12:59:20;15.30;42.30
30304;DHT22;17112;48.636;10.152;2023-04-15T13:01:47;15.20;42.10
30304;DHT22;17112;48.636;10.152;2023-04-15T13:04:13;15.20;41.20
30304;DHT22;17112;48.636;10.152;2023-04-15T13:06:39;15.10;41.20
30304;DHT22;17112;48.636;10.152;2023-04-15T13:09:05;15.00;40.60
30304;DHT22;17112;48.636;10.152;2023-04-15T13:11:32;14.90;41.30
30304;DHT22;17112;48.636;10.152;2023-04-15T13:14:05;14.80;40.90
30304;DHT22;17112;48.636;10.152;2023-04-15T13:16:32;14.70;40.90
30304;DHT22;17112;48.636;10.152;2023-04-15T13:18:59;14.60;40.50
30304;DHT22;17112;48.636;10.152;2023-04-15T13:21:24;14.50;41.80
30304;DHT22;17112;48.636;10.152;2023-04-15T13:23:51;14.40;42.00
30304;DHT22;17112;48.636;10.152;2023-04-15T13:26:17;14.30;42.70
30304;DHT22;17112;48.636;10.152;2023-04-15T13:28:43;14.30;43.50
30304;DHT22;17112;48.636;10.152;2023-04-15T13:31:09;14.20;43.80
30304;DHT22;17112;48.636;10.152;2023-04-15T13:33:34;14.20;43.70
30304;DHT22;17112;48.636;10.152;2023-04-15T13:36:00;14.20;43.50
30304;DHT22;17112;48.636;10.152;2023-04-15T13:38:26;14.20;43.50
30304;DHT22;17112;48.636;10.152;2023-04-15T13:40:52;14.20;43.90
30304;DHT22;17112;48.636;10.152;2023-04-15T13:43:17;14.20;44.10
30304;DHT22;17112;48.636;10.152;2023-04-15T13:45:43;14.30;43.50
30304;DHT22;17112;48.636;10.152;2023-04-15T13:48:09;14.20;43.40
30304;DHT22;17112;48.636;10.152;2023-04-15T13:50:35;14.20;43.40
30304;DHT22;17112;48.636;10.152;2023-04-15T13:53:01;14.20;42.90
30304;DHT22;17112;48.636;10.152;2023-04-15T13:55:26;14.10;43.30
30304;DHT22;17112;48.636;10.152;2023-04-15T13:57:52;14.00;43.70
30304;DHT22;17112;48.636;10.152;2023-04-15T14:00:18;13.90;44.10
30304;DHT22;17112;48.636;10.152;2023-04-15T14:02:44;13.80;44.40
30304;DHT22;17112;48.636;10.152;2023-04-15T14:05:10;13.70;44.50
30304;DHT22;17112;48.636;10.152;2023-04-15T14:07:36;13.60;45.20
30304;DHT22;17112;48.636;10.152;2023-04-15T14:10:02;13.60;45.80
30304;DHT22;17112;48.636;10.152;2023-04-15T14:12:28;13.50;46.30
30304;DHT22;17112;48.636;10.152;2023-04-15T14:14:53;13.50;46.30
30304;DHT22;17112;48.636;10.152;2023-04-15T14:17:19;13.40;46.20
30304;DHT22;17112;48.636;10.152;2023-04-15T14:19:45;13.40;46.40
30304;DHT22;17112;48.636;10.152;2023-04-15T14:22:10;13.30;46.50
30304;DHT22;17112;48.636;10.152;2023-04-15T14:24:36;13.20;46.60
30304;DHT22;17112;48.636;10.152;2023-04-15T14:27:02;13.20;46.60
30304;DHT22;17112;48.636;10.152;2023-04-15T14:29:28;13.20;46.50
30304;DHT22;17112;48.636;10.152;2023-04-15T14:31:53;13.20;46.50
30304;DHT22;17112;48.636;10.152;2023-04-15T14:34:22;13.10;46.40
30304;DHT22;17112;48.636;10.152;2023-04-15T14:36:50;13.10;46.50
30304;DHT22;17112;48.636;10.152;2023-04-15T14:39:18;13.10;46.40
30304;DHT22;17112;48.636;10.152;2023-04-15T14:41:44;13.00;46.60
30304;DHT22;17112;48.636;10.152;2023-04-15T14:44:10;13.00;46.20
30304;DHT22;17112;48.636;10.152;2023-04-15T14:46:37;13.00;46.30
30304;DHT22;17112;48.636;10.152;2023-04-15T14:49:03;13.00;46.20
30304;DHT22;17112;48.636;10.152;2023-04-15T14:51:28;13.00;46.00
30304;DHT22;17112;48.636;10.152;2023-04-15T14:53:55;13.00;46.20
30304;DHT22;17112;48.636;10.152;2023-04-15T14:56:21;13.00;46.30
30304;DHT22;17112;48.636;10.152;2023-04-15T14:58:46;13.00;46.30
30304;DHT22;17112;48.636;10.152;2023-04-15T15:01:13;13.10;46.10
30304;DHT22;17112;48.636;10.152;2023-04-15T15:03:39;13.10;46.30
30304;DHT22;17112;48.636;10.152;2023-04-15T15:06:05;13.10;45.90
30304;DHT22;17112;48.636;10.152;2023-04-15T15:08:31;13.10;46.00
30304;DHT22;17112;48.636;10.152;2023-04-15T15:10:56;13.20;46.00
30304;DHT22;17112;48.636;10.152;2023-04-15T15:13:22;13.20;45.80
30304;DHT22;17112;48.636;10.152;2023-04-15T15:15:48;13.20;45.70
30304;DHT22;17112;48.636;10.152;2023-04-15T15:18:14;13.20;45.70
30304;DHT22;17112;48.636;10.152;2023-04-15T15:20:41;13.20;45.60
30304;DHT22;17112;48.636;10.152;2023-04-15T15:23:07;13.20;45.50
30304;DHT22;17112;48.636;10.152;2023-04-15T15:25:32;13.20;45.40
30304;DHT22;17112;48.636;10.152;2023-04-15T15:27:58;13.10;45.40
30304;DHT22;17112;48.636;10.152;2023-04-15T15:30:24;13.10;46.20
30304;DHT22;17112;48.636;10.152;2023-04-15T15:32:50;13.10;45.90
30304;DHT22;17112;48.636;10.152;2023-04-15T15:35:15;13.10;45.90
30304;DHT22;17112;48.636;10.152;2023-04-15T15:37:41;13.10;46.00
30304;DHT22;17112;48.636;10.152;2023-04-15T15:40:08;13.10;46.30
30304;DHT22;17112;48.636;10.152;2023-04-15T15:42:34;13.00;46.20
30304;DHT22;17112;48.636;10.152;2023-04-15T15:45:01;13.00;46.50
30304;DHT22;17112;48.636;10.152;2023-04-15T15:47:27;12.90;46.60
30304;DHT22;17112;48.636;10.152;2023-04-15T15:49:53;12.90;46.80
30304;DHT22;17112;48.636;10.152;2023-04-15T15:52:19;12.90;47.10
30304;DHT22;17112;48.636;10.152;2023-04-15T15:54:45;12.80;47.30
30304;DHT22;17112;48.636;10.152;2023-04-15T15:57:10;12.80;47.60
30304;DHT22;17112;48.636;10.152;2023-04-15T15:59:36;12.70;47.90